sensor_id;sensor_type;location;lat;lon;timestamp;pressure;altitude;pressure_sealevel;temperature;humidity
27805;BME280;15183;51.350;11.102;2023-09-30T00:01:45;100720.00;;;19.79;54.10
27805;BME280;15183;51.350;11.102;2023-09-30T00:04:11;100736.13;;;19.79;53.52
27805;BME280;15183;51.350;11.102;2023-09-30T00:06:38;100731.28;;;19.71;53.81
27805;BME280;15183;51.350;11.102;2023-09-30T00:09:05;100728.81;;;19.64;53.91
27805;BME280;15183;51.350;11.102;2023-09-30T00:11:31;100737.13;;;19.63;53.78
27805;BME280;15183;51.350;11.102;2023-09-30T00:13:58;100736.88;;;19.59;53.92
27805;BME280;15183;51.350;11.102;2023-09-30T00:16:24;100726.88;;;19.44;54.09
27805;BME280;15183;51.350;11.102;2023-09-30T00:18:51;100742.19;;;19.49;53.67
27805;BME280;15183;51.350;11.102;2023-09-30T00:21:19;100735.72;;;19.45;54.50
27805;BME280;15183;51.350;11.102;2023-09-30T00:23:45;100736.53;;;19.40;54.45
27805;BME280;15183;51.350;11.102;2023-09-30T00:26:11;100744.56;;;19.35;54.45
27805;BME280;15183;51.350;11.102;2023-09-30T00:28:39;100755.56;;;19.28;54.27
27805;BME280;15183;51.350;11.102;2023-09-30T00:31:08;100757.94;;;19.24;54.53
27805;BME280;15183;51.350;11.102;2023-09-30T00:33:36;100754.16;;;19.20;54.07
27805;BME280;15183;51.350;11.102;2023-09-30T00:36:10;100757.09;;;19.14;54.16
27805;BME280;15183;51.350;11.102;2023-09-30T00:38:38;100764.34;;;19.13;54.46
27805;BME280;15183;51.350;11.102;2023-09-30T00:41:06;100768.84;;;19.07;54.43
27805;BME280;15183;51.350;11.102;2023-09-30T00:43:34;100769.91;;;19.01;54.82
27805;BME280;15183;51.350;11.102;2023-09-30T00:46:26;100781.19;;;19.03;54.96
27805;BME280;15183;51.350;11.102;2023-09-30T00:48:54;100778.25;;;19.05;54.59
27805;BME280;15183;51.350;11.102;2023-09-30T00:51:23;100775.31;;;19.06;54.92
27805;BME280;15183;51.350;11.102;2023-09-30T00:53:54;100781.50;;;19.07;54.75
27805;BME280;15183;51.350;11.102;2023-09-30T00:56:26;100792.25;;;19.07;54.41
27805;BME280;15183;51.350;11.102;2023-09-30T00:58:52;100795.69;;;19.02;54.54
27805;BME280;15183;51.350;11.102;2023-09-30T01:01:20;100793.22;;;18.95;54.97
27805;BME280;15183;51.350;11.102;2023-09-30T01:03:47;100793.13;;;18.85;54.59
27805;BME280;15183;51.350;11.102;2023-09-30T01:06:14;100805.25;;;18.88;55.04
27805;BME280;15183;51.350;11.102;2023-09-30T01:08:40;100788.22;;;18.77;55.05
27805;BME280;15183;51.350;11.102;2023-09-30T01:11:08;100806.53;;;18.85;54.47
27805;BME280;15183;51.350;11.102;2023-09-30T01:13:36;100804.66;;;18.80;54.55
27805;BME280;15183;51.350;11.102;2023-09-30T01:16:10;100813.25;;;18.83;54.88
27805;BME280;15183;51.350;11.102;2023-09-30T01:18:39;100795.19;;;18.73;54.97
27805;BME280;15183;51.350;11.102;2023-09-30T01:21:06;100809.63;;;18.66;55.04
27805;BME280;15183;51.350;11.102;2023-09-30T01:23:34;100808.41;;;18.52;54.88
27805;BME280;15183;51.350;11.102;2023-09-30T01:26:12;100809.34;;;18.35;55.37
27805;BME280;15183;51.350;11.102;2023-09-30T01:28:39;100818.66;;;18.28;55.52
27805;BME280;15183;51.350;11.102;2023-09-30T01:31:06;100804.59;;;18.15;55.33
27805;BME280;15183;51.350;11.102;2023-09-30T01:33:33;100825.34;;;18.25;55.86
27805;BME280;15183;51.350;11.102;2023-09-30T01:36:02;100825.34;;;18.25;56.09
27805;BME280;15183;51.350;11.102;2023-09-30T01:38:28;100829.09;;;18.24;55.62
27805;BME280;15183;51.350;11.102;2023-09-30T01:40:56;100816.63;;;18.13;55.91
27805;BME280;15183;51.350;11.102;2023-09-30T01:43:23;100834.97;;;18.21;55.63
27805;BME280;15183;51.350;11.102;2023-09-30T01:45:50;100845.44;;;18.22;56.03
27805;BME280;15183;51.350;11.102;2023-09-30T01:48:17;100846.81;;;18.25;55.96
27805;BME280;15183;51.350;11.102;2023-09-30T01:50:44;100848.44;;;18.26;55.91
27805;BME280;15183;51.350;11.102;2023-09-30T01:53:11;100852.19;;;18.25;55.77
27805;BME280;15183;51.350;11.102;2023-09-30T01:55:39;100859.13;;;18.21;55.87
27805;BME280;15183;51.350;11.102;2023-09-30T01:58:06;100848.25;;;18.11;56.21
27805;BME280;15183;51.350;11.102;2023-09-30T02:00:33;100850.13;;;18.10;56.29
27805;BME280;15183;51.350;11.102;2023-09-30T02:03:01;100851.81;;;18.16;56.44
27805;BME280;15183;51.350;11.102;2023-09-30T02:05:28;100836.97;;;18.08;56.19
27805;BME280;15183;51.350;11.102;2023-09-30T02:07:55;100857.16;;;18.16;56.51
27805;BME280;15183;51.350;11.102;2023-09-30T02:10:22;100866.78;;;18.12;56.38
27805;BME280;15183;51.350;11.102;2023-09-30T02:12:48;100867.78;;;18.06;56.34
27805;BME280;15183;51.350;11.102;2023-09-30T02:15:15;100881.25;;;18.11;56.26
27805;BME280;15183;51.350;11.102;2023-09-30T02:17:42;100872.34;;;18.05;55.70
27805;BME280;15183;51.350;11.102;2023-09-30T02:20:12;100872.19;;;17.95;55.93
27805;BME280;15183;51.350;11.102;2023-09-30T02:22:42;100877.97;;;17.87;56.47
27805;BME280;15183;51.350;11.102;2023-09-30T02:25:10;100873.13;;;17.84;56.09
27805;BME280;15183;51.350;11.102;2023-09-30T02:27:42;100878.38;;;17.78;56.36
27805;BME280;15183;51.350;11.102;2023-09-30T02:30:10;100891.50;;;17.75;56.35
27805;BME280;15183;51.350;11.102;2023-09-30T02:32:39;100892.41;;;17.63;56.60
27805;BME280;15183;51.350;11.102;2023-09-30T02:35:09;100885.66;;;17.61;56.25
27805;BME280;15183;51.350;11.102;2023-09-30T02:37:39;100895.91;;;17.64;56.29
27805;BME280;15183;51.350;11.102;2023-09-30T02:40:07;100893.47;;;17.62;56.45
27805;BME280;15183;51.350;11.102;2023-09-30T02:42:40;100886.16;;;17.58;56.72
27805;BME280;15183;51.350;11.102;2023-09-30T02:45:08;100885.78;;;17.49;56.84
27805;BME280;15183;51.350;11.102;2023-09-30T02:47:35;100896.00;;;17.52;56.83
27805;BME280;15183;51.350;11.102;2023-09-30T02:50:05;100892.19;;;17.48;56.81
27805;BME280;15183;51.350;11.102;2023-09-30T02:52:36;100899.44;;;17.47;56.83
27805;BME280;15183;51.350;11.102;2023-09-30T02:55:03;100896.75;;;17.47;56.54
27805;BME280;15183;51.350;11.102;2023-09-30T02:57:29;100884.41;;;17.46;56.91
27805;BME280;15183;51.350;11.102;2023-09-30T02:59:58;100895.44;;;17.50;56.51
27805;BME280;15183;51.350;11.102;2023-09-30T03:02:26;100891.78;;;17.39;56.93
27805;BME280;15183;51.350;11.102;2023-09-30T03:04:53;100916.06;;;17.49;56.86
27805;BME280;15183;51.350;11.102;2023-09-30T03:07:21;100907.78;;;17.51;56.50
27805;BME280;15183;51.350;11.102;2023-09-30T03:09:50;100905.56;;;17.48;56.78
27805;BME280;15183;51.350;11.102;2023-09-30T03:12:19;100917.75;;;17.56;57.16
27805;BME280;15183;51.350;11.102;2023-09-30T03:14:46;100920.75;;;17.59;56.48
27805;BME280;15183;51.350;11.102;2023-09-30T03:17:13;100921.00;;;17.58;56.14
27805;BME280;15183;51.350;11.102;2023-09-30T03:19:39;100918.63;;;17.61;56.17
27805;BME280;15183;51.350;11.102;2023-09-30T03:22:06;100924.00;;;17.61;55.98
27805;BME280;15183;51.350;11.102;2023-09-30T03:24:39;100917.19;;;17.54;56.35
27805;BME280;15183;51.350;11.102;2023-09-30T03:27:06;100946.19;;;17.57;55.82
27805;BME280;15183;51.350;11.102;2023-09-30T03:29:36;100931.81;;;17.46;56.43
27805;BME280;15183;51.350;11.102;2023-09-30T03:32:04;100940.75;;;17.52;56.32
27805;BME280;15183;51.350;11.102;2023-09-30T03:34:34;100935.38;;;17.52;56.38
27805;BME280;15183;51.350;11.102;2023-09-30T03:37:11;100932.44;;;17.53;56.29
27805;BME280;15183;51.350;11.102;2023-09-30T03:39:39;100927.41;;;17.57;56.34
27805;BME280;15183;51.350;11.102;2023-09-30T03:42:07;100921.00;;;17.58;56.09
27805;BME280;15183;51.350;11.102;2023-09-30T03:44:38;100925.31;;;17.59;56.61
27805;BME280;15183;51.350;11.102;2023-09-30T03:47:05;100921.91;;;17.46;55.98
27805;BME280;15183;51.350;11.102;2023-09-30T03:49:31;100910.94;;;17.31;56.61
27805;BME280;15183;51.350;11.102;2023-09-30T03:51:57;100906.63;;;17.13;56.75
27805;BME280;15183;51.350;11.102;2023-09-30T03:54:27;100917.03;;;17.09;56.49
27805;BME280;15183;51.350;11.102;2023-09-30T03:56:53;100916.69;;;17.05;56.96
27805;BME280;15183;51.350;11.102;2023-09-30T03:59:20;100916.63;;;17.00;57.15
27805;BME280;15183;51.350;11.102;2023-09-30T04:01:46;100921.84;;;17.07;57.05
27805;BME280;15183;51.350;11.102;2023-09-30T04:04:13;100926.13;;;17.08;57.02
27805;BME280;15183;51.350;11.102;2023-09-30T04:06:41;100930.50;;;17.14;56.78
27805;BME280;15183;51.350;11.102;2023-09-30T04:09:07;100926.44;;;17.12;56.70
27805;BME280;15183;51.350;11.102;2023-09-30T04:11:38;100928.41;;;17.16;56.95
27805;BME280;15183;51.350;11.102;2023-09-30T04:14:08;100926.53;;;17.17;56.77
27805;BME280;15183;51.350;11.102;2023-09-30T04:16:35;100935.69;;;17.21;56.91
27805;BME280;15183;51.350;11.102;2023-09-30T04:19:04;100938.06;;;17.17;56.72
27805;BME280;15183;51.350;11.102;2023-09-30T04:21:34;100937.50;;;17.15;56.50
27805;BME280;15183;51.350;11.102;2023-09-30T04:24:01;100949.34;;;17.19;56.84
27805;BME280;15183;51.350;11.102;2023-09-30T04:26:29;100951.44;;;17.17;56.52
27805;BME280;15183;51.350;11.102;2023-09-30T04:28:56;100945.75;;;17.14;57.00
27805;BME280;15183;51.350;11.102;2023-09-30T04:31:22;100929.53;;;17.03;56.89
27805;BME280;15183;51.350;11.102;2023-09-30T04:33:50;100931.63;;;17.01;57.09
27805;BME280;15183;51.350;11.102;2023-09-30T04:36:20;100933.75;;;16.99;57.41
27805;BME280;15183;51.350;11.102;2023-09-30T04:38:49;100952.22;;;17.01;57.12
27805;BME280;15183;51.350;11.102;2023-09-30T04:41:16;100960.03;;;17.02;57.11
27805;BME280;15183;51.350;11.102;2023-09-30T04:43:43;100974.22;;;17.03;57.26
27805;BME280;15183;51.350;11.102;2023-09-30T04:46:10;100969.78;;;16.97;56.93
27805;BME280;15183;51.350;11.102;2023-09-30T04:48:39;100968.56;;;16.87;57.13
27805;BME280;15183;51.350;11.102;2023-09-30T04:51:09;100975.00;;;16.74;57.39
27805;BME280;15183;51.350;11.102;2023-09-30T04:53:38;100977.84;;;16.68;57.70
27805;BME280;15183;51.350;11.102;2023-09-30T04:56:05;100989.00;;;16.64;57.57
27805;BME280;15183;51.350;11.102;2023-09-30T04:58:32;100992.63;;;16.58;57.79
27805;BME280;15183;51.350;11.102;2023-09-30T05:00:58;100984.19;;;16.49;57.86
27805;BME280;15183;51.350;11.102;2023-09-30T05:03:24;100975.53;;;16.47;57.97
27805;BME280;15183;51.350;11.102;2023-09-30T05:05:52;100978.00;;;16.49;57.76
27805;BME280;15183;51.350;11.102;2023-09-30T05:08:23;100980.91;;;16.47;58.05
27805;BME280;15183;51.350;11.102;2023-09-30T05:10:50;100970.34;;;16.41;58.11
27805;BME280;15183;51.350;11.102;2023-09-30T05:13:17;100986.50;;;16.46;58.31
27805;BME280;15183;51.350;11.102;2023-09-30T05:15:45;100989.19;;;16.46;58.17
27805;BME280;15183;51.350;11.102;2023-09-30T05:18:12;100992.22;;;16.49;58.47
27805;BME280;15183;51.350;11.102;2023-09-30T05:20:39;100991.38;;;16.49;58.26
27805;BME280;15183;51.350;11.102;2023-09-30T05:23:07;100986.72;;;16.44;58.49
27805;BME280;15183;51.350;11.102;2023-09-30T05:25:34;100994.06;;;16.49;58.35
27805;BME280;15183;51.350;11.102;2023-09-30T05:28:04;100992.78;;;16.52;58.11
27805;BME280;15183;51.350;11.102;2023-09-30T05:30:33;100997.78;;;16.48;58.35
27805;BME280;15183;51.350;11.102;2023-09-30T05:33:01;100989.06;;;16.41;58.64
27805;BME280;15183;51.350;11.102;2023-09-30T05:35:29;100995.31;;;16.46;58.81
27805;BME280;15183;51.350;11.102;2023-09-30T05:37:56;100981.63;;;16.43;58.79
27805;BME280;15183;51.350;11.102;2023-09-30T05:40:22;100989.53;;;16.49;58.70
27805;BME280;15183;51.350;11.102;2023-09-30T05:42:55;100985.44;;;16.47;58.67
27805;BME280;15183;51.350;11.102;2023-09-30T05:45:24;100987.91;;;16.48;59.00
27805;BME280;15183;51.350;11.102;2023-09-30T05:47:53;101007.53;;;16.54;58.86
27805;BME280;15183;51.350;11.102;2023-09-30T05:50:21;100996.50;;;16.51;59.00
27805;BME280;15183;51.350;11.102;2023-09-30T05:52:52;101004.16;;;16.59;58.98
27805;BME280;15183;51.350;11.102;2023-09-30T05:55:18;101009.81;;;16.62;59.09
27805;BME280;15183;51.350;11.102;2023-09-30T05:57:49;101014.25;;;16.69;58.98
27805;BME280;15183;51.350;11.102;2023-09-30T06:00:16;100993.44;;;16.59;58.82
27805;BME280;15183;51.350;11.102;2023-09-30T06:02:50;101015.53;;;16.66;58.96
27805;BME280;15183;51.350;11.102;2023-09-30T06:05:18;101016.81;;;16.63;59.22
27805;BME280;15183;51.350;11.102;2023-09-30T06:07:49;101033.44;;;16.66;58.85
27805;BME280;15183;51.350;11.102;2023-09-30T06:10:16;101011.94;;;16.60;59.15
27805;BME280;15183;51.350;11.102;2023-09-30T06:12:51;101020.06;;;16.66;59.35
27805;BME280;15183;51.350;11.102;2023-09-30T06:15:26;101009.69;;;16.69;59.16
27805;BME280;15183;51.350;11.102;2023-09-30T06:17:53;101021.44;;;16.80;59.31
27805;BME280;15183;51.350;11.102;2023-09-30T06:20:21;101024.66;;;16.94;59.30
27805;BME280;15183;51.350;11.102;2023-09-30T06:22:49;101023.81;;;17.05;59.24
27805;BME280;15183;51.350;11.102;2023-09-30T06:25:19;101021.31;;;17.16;59.18
27805;BME280;15183;51.350;11.102;2023-09-30T06:27:47;101017.78;;;17.27;59.04
27805;BME280;15183;51.350;11.102;2023-09-30T06:30:18;101025.25;;;17.42;59.32
27805;BME280;15183;51.350;11.102;2023-09-30T06:32:47;101028.75;;;17.60;59.25
27805;BME280;15183;51.350;11.102;2023-09-30T06:35:14;101008.03;;;17.55;58.91
27805;BME280;15183;51.350;11.102;2023-09-30T06:37:42;101016.75;;;17.62;58.80
27805;BME280;15183;51.350;11.102;2023-09-30T06:40:11;101028.34;;;17.68;58.72
27805;BME280;15183;51.350;11.102;2023-09-30T06:42:39;101024.41;;;17.71;58.42
27805;BME280;15183;51.350;11.102;2023-09-30T06:45:07;101026.81;;;17.72;59.00
27805;BME280;15183;51.350;11.102;2023-09-30T06:47:39;101019.34;;;17.74;58.70
27805;BME280;15183;51.350;11.102;2023-09-30T06:50:26;101023.97;;;17.79;58.41
27805;BME280;15183;51.350;11.102;2023-09-30T06:52:52;101035.13;;;17.88;58.71
27805;BME280;15183;51.350;11.102;2023-09-30T06:55:18;101045.66;;;17.94;58.58
27805;BME280;15183;51.350;11.102;2023-09-30T06:57:50;101048.19;;;18.01;58.87
27805;BME280;15183;51.350;11.102;2023-09-30T07:00:17;101045.53;;;18.01;58.63
27805;BME280;15183;51.350;11.102;2023-09-30T07:02:44;101054.78;;;18.11;58.83
27805;BME280;15183;51.350;11.102;2023-09-30T07:05:13;101063.94;;;18.15;58.46
27805;BME280;15183;51.350;11.102;2023-09-30T07:07:40;101067.19;;;18.17;58.11
27805;BME280;15183;51.350;11.102;2023-09-30T07:10:10;101066.63;;;18.15;58.11
27805;BME280;15183;51.350;11.102;2023-09-30T07:12:37;101075.50;;;18.15;58.59
27805;BME280;15183;51.350;11.102;2023-09-30T07:15:07;101082.50;;;18.16;58.36
27805;BME280;15183;51.350;11.102;2023-09-30T07:17:36;101083.13;;;18.23;58.11
27805;BME280;15183;51.350;11.102;2023-09-30T07:20:04;101071.34;;;18.25;58.40
27805;BME280;15183;51.350;11.102;2023-09-30T07:22:32;101075.06;;;18.41;58.17
27805;BME280;15183;51.350;11.102;2023-09-30T07:24:59;101071.94;;;18.49;58.27
27805;BME280;15183;51.350;11.102;2023-09-30T07:27:27;101077.53;;;18.64;58.41
27805;BME280;15183;51.350;11.102;2023-09-30T07:29:53;101077.66;;;18.75;58.27
27805;BME280;15183;51.350;11.102;2023-09-30T07:32:21;101094.50;;;18.92;57.76
27805;BME280;15183;51.350;11.102;2023-09-30T07:34:52;101088.72;;;19.01;57.92
27805;BME280;15183;51.350;11.102;2023-09-30T07:37:19;101095.31;;;19.15;58.22
27805;BME280;15183;51.350;11.102;2023-09-30T07:39:46;101081.94;;;19.20;57.68
27805;BME280;15183;51.350;11.102;2023-09-30T07:42:16;101084.53;;;19.37;57.50
27805;BME280;15183;51.350;11.102;2023-09-30T07:44:43;101099.25;;;19.57;57.91
27805;BME280;15183;51.350;11.102;2023-09-30T07:47:09;101098.31;;;19.74;57.60
27805;BME280;15183;51.350;11.102;2023-09-30T07:49:37;101083.31;;;19.83;57.15
27805;BME280;15183;51.350;11.102;2023-09-30T07:52:04;101102.03;;;20.00;56.44
27805;BME280;15183;51.350;11.102;2023-09-30T07:54:30;101088.69;;;20.10;56.88
27805;BME280;15183;51.350;11.102;2023-09-30T07:56:57;101071.72;;;20.10;56.67
27805;BME280;15183;51.350;11.102;2023-09-30T07:59:26;101092.00;;;20.28;56.40
27805;BME280;15183;51.350;11.102;2023-09-30T08:01:52;101093.63;;;20.29;55.89
27805;BME280;15183;51.350;11.102;2023-09-30T08:04:23;101096.91;;;20.36;56.10
27805;BME280;15183;51.350;11.102;2023-09-30T08:06:50;101093.69;;;20.39;56.00
27805;BME280;15183;51.350;11.102;2023-09-30T08:09:17;101100.16;;;20.44;55.55
27805;BME280;15183;51.350;11.102;2023-09-30T08:11:46;101108.25;;;20.44;55.29
27805;BME280;15183;51.350;11.102;2023-09-30T08:14:14;101101.00;;;20.44;55.23
27805;BME280;15183;51.350;11.102;2023-09-30T08:16:41;101096.66;;;20.38;55.30
27805;BME280;15183;51.350;11.102;2023-09-30T08:19:09;101104.19;;;20.36;55.00
27805;BME280;15183;51.350;11.102;2023-09-30T08:21:35;101110.91;;;20.38;54.61
27805;BME280;15183;51.350;11.102;2023-09-30T08:24:02;101113.34;;;20.40;55.00
27805;BME280;15183;51.350;11.102;2023-09-30T08:26:29;101113.06;;;20.36;54.65
27805;BME280;15183;51.350;11.102;2023-09-30T08:28:57;101117.34;;;20.32;54.24
27805;BME280;15183;51.350;11.102;2023-09-30T08:31:23;101115.38;;;20.22;53.91
27805;BME280;15183;51.350;11.102;2023-09-30T08:33:52;101121.28;;;20.19;53.70
27805;BME280;15183;51.350;11.102;2023-09-30T08:36:18;101108.84;;;20.08;54.13
27805;BME280;15183;51.350;11.102;2023-09-30T08:38:45;101115.88;;;20.14;54.15
27805;BME280;15183;51.350;11.102;2023-09-30T08:41:31;101094.75;;;19.95;53.50
27805;BME280;15183;51.350;11.102;2023-09-30T08:44:03;101123.97;;;20.19;53.70
27805;BME280;15183;51.350;11.102;2023-09-30T08:46:32;101118.91;;;20.23;53.39
27805;BME280;15183;51.350;11.102;2023-09-30T08:49:04;101124.00;;;20.24;53.54
27805;BME280;15183;51.350;11.102;2023-09-30T08:51:32;101128.09;;;20.32;53.15
27805;BME280;15183;51.350;11.102;2023-09-30T08:53:59;101127.09;;;20.44;53.17
27805;BME280;15183;51.350;11.102;2023-09-30T08:56:29;101116.09;;;20.50;52.99
27805;BME280;15183;51.350;11.102;2023-09-30T08:59:00;101111.03;;;20.59;52.53
27805;BME280;15183;51.350;11.102;2023-09-30T09:01:31;101105.97;;;20.68;52.76
27805;BME280;15183;51.350;11.102;2023-09-30T09:03:58;101109.53;;;20.79;52.85
27805;BME280;15183;51.350;11.102;2023-09-30T09:06:25;101123.53;;;20.81;52.38
27805;BME280;15183;51.350;11.102;2023-09-30T09:08:52;101104.16;;;20.79;52.50
27805;BME280;15183;51.350;11.102;2023-09-30T09:11:21;101103.63;;;20.82;51.84
27805;BME280;15183;51.350;11.102;2023-09-30T09:13:55;101092.84;;;20.82;52.15
27805;BME280;15183;51.350;11.102;2023-09-30T09:16:27;101106.59;;;20.86;51.70
27805;BME280;15183;51.350;11.102;2023-09-30T09:18:55;101112.00;;;20.86;51.73
27805;BME280;15183;51.350;11.102;2023-09-30T09:21:23;101129.47;;;20.83;51.40
27805;BME280;15183;51.350;11.102;2023-09-30T09:23:54;101125.16;;;20.82;51.37
27805;BME280;15183;51.350;11.102;2023-09-30T09:26:30;101123.53;;;20.81;50.84
27805;BME280;15183;51.350;11.102;2023-09-30T09:29:03;101132.13;;;20.78;50.97
27805;BME280;15183;51.350;11.102;2023-09-30T09:31:33;101139.13;;;20.74;51.05
27805;BME280;15183;51.350;11.102;2023-09-30T09:34:13;101129.41;;;20.73;51.13
27805;BME280;15183;51.350;11.102;2023-09-30T09:36:42;101134.56;;;20.74;51.35
27805;BME280;15183;51.350;11.102;2023-09-30T09:39:12;101133.72;;;20.74;51.19
27805;BME280;15183;51.350;11.102;2023-09-30T09:41:55;101136.97;;;20.76;51.24
27805;BME280;15183;51.350;11.102;2023-09-30T09:45:16;101128.88;;;20.76;51.48
27805;BME280;15183;51.350;11.102;2023-09-30T09:47:43;101124.84;;;20.73;50.92
27805;BME280;15183;51.350;11.102;2023-09-30T09:50:10;101128.69;;;20.82;50.81
27805;BME280;15183;51.350;11.102;2023-09-30T09:52:38;101123.06;;;20.89;50.85
27805;BME280;15183;51.350;11.102;2023-09-30T09:55:10;101127.94;;;20.92;50.77
27805;BME280;15183;51.350;11.102;2023-09-30T09:57:37;101124.16;;;20.93;50.96
27805;BME280;15183;51.350;11.102;2023-09-30T10:00:05;101125.78;;;21.00;50.80
27805;BME280;15183;51.350;11.102;2023-09-30T10:02:40;101119.88;;;20.98;50.37
27805;BME280;15183;51.350;11.102;2023-09-30T10:05:08;101118.25;;;20.96;50.06
27805;BME280;15183;51.350;11.102;2023-09-30T10:07:46;101127.09;;;20.92;50.11
27805;BME280;15183;51.350;11.102;2023-09-30T10:10:19;101127.94;;;20.98;50.15
27805;BME280;15183;51.350;11.102;2023-09-30T10:12:48;101116.34;;;20.97;50.55
27805;BME280;15183;51.350;11.102;2023-09-30T10:18:05;101122.81;;;21.01;50.56
27805;BME280;15183;51.350;11.102;2023-09-30T10:20:34;101116.09;;;21.04;49.82
27805;BME280;15183;51.350;11.102;2023-09-30T10:25:44;101113.44;;;21.19;49.45
27805;BME280;15183;51.350;11.102;2023-09-30T10:28:40;101109.72;;;21.25;49.28
27805;BME280;15183;51.350;11.102;2023-09-30T10:31:28;101115.34;;;21.19;49.32
27805;BME280;15183;51.350;11.102;2023-09-30T10:36:39;101127.50;;;21.32;48.99
27805;BME280;15183;51.350;11.102;2023-09-30T10:39:13;101116.44;;;21.28;48.37
27805;BME280;15183;51.350;11.102;2023-09-30T10:49:47;101098.38;;;21.23;48.43
27805;BME280;15183;51.350;11.102;2023-09-30T10:52:24;101112.69;;;21.39;48.67
27805;BME280;15183;51.350;11.102;2023-09-30T10:54:52;101107.03;;;21.46;48.74
27805;BME280;15183;51.350;11.102;2023-09-30T10:57:27;101113.81;;;21.54;48.19
27805;BME280;15183;51.350;11.102;2023-09-30T11:00:15;101105.16;;;21.62;48.64
27805;BME280;15183;51.350;11.102;2023-09-30T11:02:52;101091.47;;;21.74;48.48
27805;BME280;15183;51.350;11.102;2023-09-30T11:05:20;101095.50;;;21.77;48.47
27805;BME280;15183;51.350;11.102;2023-09-30T11:07:48;101096.06;;;21.84;47.96
27805;BME280;15183;51.350;11.102;2023-09-30T11:10:18;101098.19;;;21.92;48.23
27805;BME280;15183;51.350;11.102;2023-09-30T11:12:57;101090.91;;;21.98;47.97
27805;BME280;15183;51.350;11.102;2023-09-30T11:15:24;101104.13;;;22.05;47.26
27805;BME280;15183;51.350;11.102;2023-09-30T11:18:15;101091.97;;;22.07;47.50
27805;BME280;15183;51.350;11.102;2023-09-30T11:20:42;101100.84;;;22.13;47.17
27805;BME280;15183;51.350;11.102;2023-09-30T11:23:11;101105.44;;;22.18;47.23
27805;BME280;15183;51.350;11.102;2023-09-30T11:25:40;101094.91;;;22.26;47.56
27805;BME280;15183;51.350;11.102;2023-09-30T11:28:18;101087.59;;;22.32;48.01
27805;BME280;15183;51.350;11.102;2023-09-30T11:30:59;101101.09;;;22.53;47.33
27805;BME280;15183;51.350;11.102;2023-09-30T11:33:26;101109.13;;;22.68;46.88
27805;BME280;15183;51.350;11.102;2023-09-30T11:36:05;101085.34;;;22.70;46.26
27805;BME280;15183;51.350;11.102;2023-09-30T11:38:34;101074.03;;;22.63;46.66
27805;BME280;15183;51.350;11.102;2023-09-30T11:41:03;101067.03;;;22.57;45.68
27805;BME280;15183;51.350;11.102;2023-09-30T11:43:35;101055.19;;;22.37;46.29
27805;BME280;15183;51.350;11.102;2023-09-30T11:46:08;101079.50;;;22.48;45.85
27805;BME280;15183;51.350;11.102;2023-09-30T11:48:40;101084.88;;;22.53;46.51
27805;BME280;15183;51.350;11.102;2023-09-30T11:51:24;101073.50;;;22.61;46.58
27805;BME280;15183;51.350;11.102;2023-09-30T11:53:51;101077.25;;;22.76;46.55
27805;BME280;15183;51.350;11.102;2023-09-30T11:56:17;101066.94;;;22.83;46.41
27805;BME280;15183;51.350;11.102;2023-09-30T11:58:43;101061.50;;;22.88;46.05
27805;BME280;15183;51.350;11.102;2023-09-30T12:01:10;101058.78;;;22.88;45.62
27805;BME280;15183;51.350;11.102;2023-09-30T12:03:41;101055.81;;;22.84;45.92
27805;BME280;15183;51.350;11.102;2023-09-30T12:06:10;101060.66;;;22.93;45.97
27805;BME280;15183;51.350;11.102;2023-09-30T12:08:40;101054.09;;;23.04;45.79
27805;BME280;15183;51.350;11.102;2023-09-30T12:11:26;101060.25;;;23.15;45.65
27805;BME280;15183;51.350;11.102;2023-09-30T12:13:55;101061.31;;;23.19;46.25
27805;BME280;15183;51.350;11.102;2023-09-30T12:16:23;101047.78;;;23.24;45.08
27805;BME280;15183;51.350;11.102;2023-09-30T12:18:51;101055.91;;;23.24;44.64
27805;BME280;15183;51.350;11.102;2023-09-30T12:21:18;101046.69;;;23.25;45.52
27805;BME280;15183;51.350;11.102;2023-09-30T12:23:46;101045.88;;;23.30;45.46
27805;BME280;15183;51.350;11.102;2023-09-30T12:26:16;101037.72;;;23.35;45.30
27805;BME280;15183;51.350;11.102;2023-09-30T12:28:43;101052.25;;;23.45;44.53
27805;BME280;15183;51.350;11.102;2023-09-30T12:31:10;101049.81;;;23.43;44.11
27805;BME280;15183;51.350;11.102;2023-09-30T12:33:37;101041.16;;;23.41;44.07
27805;BME280;15183;51.350;11.102;2023-09-30T12:36:04;101033.03;;;23.41;44.02
27805;BME280;15183;51.350;11.102;2023-09-30T12:38:30;101033.34;;;23.39;43.32
27805;BME280;15183;51.350;11.102;2023-09-30T12:40:56;101039.50;;;23.45;43.79
27805;BME280;15183;51.350;11.102;2023-09-30T12:43:24;101042.19;;;23.50;43.53
27805;BME280;15183;51.350;11.102;2023-09-30T12:45:51;101035.50;;;23.42;42.66
27805;BME280;15183;51.350;11.102;2023-09-30T12:48:19;101040.31;;;23.46;42.67
27805;BME280;15183;51.350;11.102;2023-09-30T12:50:46;101037.88;;;23.44;42.95
27805;BME280;15183;51.350;11.102;2023-09-30T12:53:15;101040.06;;;23.42;42.60
27805;BME280;15183;51.350;11.102;2023-09-30T12:55:42;101027.72;;;23.31;42.57
27805;BME280;15183;51.350;11.102;2023-09-30T12:58:11;101034.72;;;23.37;42.32
27805;BME280;15183;51.350;11.102;2023-09-30T13:00:37;101030.38;;;23.36;41.68
27805;BME280;15183;51.350;11.102;2023-09-30T13:03:04;101024.75;;;23.32;41.22
27805;BME280;15183;51.350;11.102;2023-09-30T13:05:30;101027.41;;;23.37;41.57
27805;BME280;15183;51.350;11.102;2023-09-30T13:07:57;101023.31;;;23.40;42.20